Time;durP1;ratioP1;P1;durP2;ratioP2;P2;SDS_P1;SDS_P2;PMS_P1;PMS_P2;Temp;Humidity;BMP_temperature;BMP_pressure;BME280_temperature;BME280_humidity;BME280_pressure;Samples;Min_cycle;Max_cycle;Signal;HPM_P1;HPM_P2
2023/04/16 00:00:22;;;;;;;;;;;;;;;;;;5028923;28;19917;-71
2023/04/16 00:02:49;;;;;;;;;;;;;;;;;;5022497;28;19982;-68
2023/04/16 00:05:15;;;;;;;;;;;;;;;;;;5028982;28;19916;-69
2023/04/16 00:07:42;;;;;;;;;;;;;;;;;;5030549;28;19912;-70
2023/04/16 00:10:10;;;;;;;;;;;;;;;;;;5025209;28;20003;-70
2023/04/16 00:12:37;;;;;;;;;;;;;;;;;;5029546;28;19919;-70
2023/04/16 00:15:05;;;;;;;;;;;;;;;;;;5029617;28;19919;-70
2023/04/16 00:17:31;;;;;;;;;;;;;;;;;;5024512;28;19912;-70
2023/04/16 00:19:58;;;;;;;;;;;;;;;;;;5026917;28;19920;-70
2023/04/16 00:22:25;;;;;;;;;;;;;;;;;;5007923;28;20150;-69
2023/04/16 00:24:52;;;;;;;;;;;;;;;;;;5027969;28;19920;-70
2023/04/16 00:27:19;;;;;;;;;;;;;;;;;;5023145;28;19912;-70
2023/04/16 00:29:47;;;;;;;;;;;;;;;;;;5026957;28;20506;-69
2023/04/16 00:32:14;;;;;;;;;;;;;;;;;;5025501;28;20405;-70
2023/04/16 00:34:42;;;;;;;;;;;;;;;;;;5027673;28;19913;-70
2023/04/16 00:37:09;;;;;;;;;;;;;;;;;;5011066;28;20494;-70
2023/04/16 00:39:37;;;;;;;;;;;;;;;;;;5029204;28;19924;-70
2023/04/16 00:42:04;;;;;;;;;;;;;;;;;;5026270;28;20033;-69
2023/04/16 00:44:34;;;;;;;;;;;;;;;;;;5012357;28;19950;-69
2023/04/16 00:47:02;;;;;;;;;;;;;;;;;;5027207;28;20275;-71
2023/04/16 00:49:29;;;;;;;;;;;;;;;;;;5027246;28;19917;-70
2023/04/16 00:51:56;;;;;;;;;;;;;;;;;;5029926;28;20383;-70
2023/04/16 00:54:23;;;;;;;;;;;;;;;;;;5029101;28;19979;-70
2023/04/16 00:56:50;;;;;;;;;;;;;;;;;;5014489;28;20489;-70
2023/04/16 00:59:16;;;;;;;;;;;;;;;;;;5030565;28;20144;-70
2023/04/16 01:01:44;;;;;;;;;;;;;;;;;;5030991;28;20351;-70
2023/04/16 01:04:11;;;;;;;;;;;;;;;;;;5029660;28;20389;-70
2023/04/16 01:06:39;;;;;;;;;;;;;;;;;;5032907;28;19936;-70
2023/04/16 01:09:06;;;;;;;;;;;;;;;;;;5033203;28;20491;-70
2023/04/16 01:11:35;;;;;;;;;;;;;;;;;;5034112;28;19948;-70
2023/04/16 01:14:06;;;;;;;;;;;;;;;;;;5035719;28;20169;-70
2023/04/16 01:16:35;;;;;;;;;;;;;;;;;;5037020;28;19916;-70
2023/04/16 01:19:03;;;;;;;;;;;;;;;;;;5034206;28;20007;-70
2023/04/16 01:21:30;;;;;;;;;;;;;;;;;;5033045;28;19936;-70
2023/04/16 01:23:57;;;;;;;;;;;;;;;;;;5043965;28;20494;-71
2023/04/16 01:26:24;;;;;;;;;;;;;;;;;;5049148;28;19920;-70
2023/04/16 01:28:52;;;;;;;;;;;;;;;;;;5052500;28;20046;-70
2023/04/16 01:31:19;;;;;;;;;;;;;;;;;;5047618;28;20243;-71
2023/04/16 01:33:47;;;;;;;;;;;;;;;;;;5054261;28;20475;-70
2023/04/16 01:36:14;;;;;;;;;;;;;;;;;;5033259;28;19912;-70
2023/04/16 01:38:41;;;;;;;;;;;;;;;;;;5033994;28;20007;-70
2023/04/16 01:41:09;;;;;;;;;;;;;;;;;;5048808;28;20693;-70
2023/04/16 01:43:36;;;;;;;;;;;;;;;;;;5051855;28;19919;-70
2023/04/16 01:46:03;;;;;;;;;;;;;;;;;;5038421;28;20290;-70
2023/04/16 01:48:29;;;;;;;;;;;;;;;;;;5051984;28;19947;-70
2023/04/16 01:50:59;;;;;;;;;;;;;;;;;;5055756;28;19920;-71
2023/04/16 01:53:29;;;;;;;;;;;;;;;;;;5048235;28;20005;-70
2023/04/16 01:55:55;;;;;;;;;;;;;;;;;;5048190;28;19989;-70
2023/04/16 01:58:23;;;;;;;;;;;;;;;;;;5047876;28;20362;-71
2023/04/16 02:00:49;;;;;;;;;;;;;;;;;;5050630;28;19908;-70
2023/04/16 02:03:16;;;;;;;;;;;;;;;;;;5044811;28;19954;-70
2023/04/16 02:05:44;;;;;;;;;;;;;;;;;;5052702;28;19927;-71
2023/04/16 02:08:14;;;;;;;;;;;;;;;;;;5050655;28;20563;-70
2023/04/16 02:10:40;;;;;;;;;;;;;;;;;;5048077;28;20250;-70
2023/04/16 02:13:06;;;;;;;;;;;;;;;;;;5051467;28;20380;-70
2023/04/16 02:15:34;;;;;;;;;;;;;;;;;;5035731;28;19938;-70
2023/04/16 02:18:01;;;;;;;;;;;;;;;;;;5049608;28;19916;-69
2023/04/16 02:20:28;;;;;;;;;;;;;;;;;;5033866;28;24500;-69
2023/04/16 02:22:55;;;;;;;;;;;;;;;;;;5035565;28;20511;-71
2023/04/16 02:25:23;;;;;;;;;;;;;;;;;;5045844;28;19955;-71
2023/04/16 02:27:49;;;;;;;;;;;;;;;;;;5055356;28;20121;-70
2023/04/16 02:30:16;;;;;;;;;;;;;;;;;;5045240;28;19915;-71
2023/04/16 02:32:43;;;;;;;;;;;;;;;;;;5050577;28;19912;-69
2023/04/16 02:35:09;;;;;;;;;;;;;;;;;;5045315;28;20266;-71
2023/04/16 02:37:39;;;;;;;;;;;;;;;;;;5050392;28;19920;-70
2023/04/16 02:40:06;;;;;;;;;;;;;;;;;;5027439;28;19919;-70
2023/04/16 02:42:34;;;;;;;;;;;;;;;;;;5037544;28;19912;-70
2023/04/16 02:45:01;;;;;;;;;;;;;;;;;;5049313;28;19924;-69
2023/04/16 02:47:28;;;;;;;;;;;;;;;;;;5050122;28;21299;-71
2023/04/16 02:49:55;;;;;;;;;;;;;;;;;;5033495;28;20599;-70
2023/04/16 02:52:22;;;;;;;;;;;;;;;;;;5031649;28;20499;-71
2023/04/16 02:54:48;;;;;;;;;;;;;;;;;;5032955;28;19912;-70
2023/04/16 02:57:16;;;;;;;;;;;;;;;;;;5049339;28;20392;-72
2023/04/16 02:59:43;;;;;;;;;;;;;;;;;;5033109;28;20245;-70
2023/04/16 03:02:10;;;;;;;;;;;;;;;;;;5028936;28;19986;-69
2023/04/16 03:04:37;;;;;;;;;;;;;;;;;;5048576;28;19919;-71
2023/04/16 03:07:03;;;;;;;;;;;;;;;;;;5052102;28;19920;-70
2023/04/16 03:09:30;;;;;;;;;;;;;;;;;;5043571;28;19919;-70
2023/04/16 03:11:57;;;;;;;;;;;;;;;;;;5055294;28;20429;-71
2023/04/16 03:14:23;;;;;;;;;;;;;;;;;;5048452;28;19911;-71
2023/04/16 03:16:50;;;;;;;;;;;;;;;;;;5034150;28;19923;-70
2023/04/16 03:19:17;;;;;;;;;;;;;;;;;;5046937;28;19916;-70
2023/04/16 03:21:44;;;;;;;;;;;;;;;;;;5033027;28;19916;-71
2023/04/16 03:24:10;;;;;;;;;;;;;;;;;;5048796;28;20865;-70
2023/04/16 03:26:37;;;;;;;;;;;;;;;;;;5048265;28;19927;-71
2023/04/16 03:29:04;;;;;;;;;;;;;;;;;;5054619;28;19911;-71
2023/04/16 03:31:31;;;;;;;;;;;;;;;;;;5031302;28;19912;-71
2023/04/16 03:33:58;;;;;;;;;;;;;;;;;;5035153;28;19912;-71
2023/04/16 03:36:26;;;;;;;;;;;;;;;;;;5048938;28;20194;-70
2023/04/16 03:38:52;;;;;;;;;;;;;;;;;;5048575;28;20015;-70
2023/04/16 03:41:19;;;;;;;;;;;;;;;;;;5044033;28;19919;-69
2023/04/16 03:43:50;;;;;;;;;;;;;;;;;;5050390;28;20483;-71
2023/04/16 03:46:18;;;;;;;;;;;;;;;;;;5046044;28;20238;-70
2023/04/16 03:48:44;;;;;;;;;;;;;;;;;;5052865;28;19959;-70
2023/04/16 03:51:11;;;;;;;;;;;;;;;;;;5034141;28;19959;-70
2023/04/16 03:53:37;;;;;;;;;;;;;;;;;;5046829;28;20412;-70
2023/04/16 03:56:04;;;;;;;;;;;;;;;;;;5052067;28;19916;-69
2023/04/16 03:58:30;;;;;;;;;;;;;;;;;;5027608;28;20455;-71
2023/04/16 04:00:57;;;;;;;;;;;;;;;;;;5050470;28;19916;-70
2023/04/16 04:03:25;;;;;;;;;;;;;;;;;;5048567;28;20329;-69
2023/04/16 04:05:51;;;;;;;;;;;;;;;;;;5049041;28;19923;-71
2023/04/16 04:08:17;;;;;;;;;;;;;;;;;;5047312;28;19912;-71
2023/04/16 04:10:44;;;;;;;;;;;;;;;;;;5047447;28;19965;-70
2023/04/16 04:13:10;;;;;;;;;;;;;;;;;;5049645;28;20188;-70
2023/04/16 04:15:36;;;;;;;;;;;;;;;;;;5053155;28;20011;-70
2023/04/16 04:18:03;;;;;;;;;;;;;;;;;;5046797;28;20265;-69
2023/04/16 04:20:30;;;;;;;;;;;;;;;;;;5047563;28;19970;-70
2023/04/16 04:22:57;;;;;;;;;;;;;;;;;;5035032;28;19912;-70
2023/04/16 04:25:25;;;;;;;;;;;;;;;;;;5045729;28;20448;-70
2023/04/16 04:27:51;;;;;;;;;;;;;;;;;;5051522;28;19912;-70
2023/04/16 04:30:18;;;;;;;;;;;;;;;;;;5030820;28;19965;-70
2023/04/16 04:32:44;;;;;;;;;;;;;;;;;;5032869;28;20285;-70
2023/04/16 04:35:11;;;;;;;;;;;;;;;;;;5054742;28;19916;-71
2023/04/16 04:37:37;;;;;;;;;;;;;;;;;;5050487;28;19916;-70
2023/04/16 04:40:04;;;;;;;;;;;;;;;;;;5035946;28;20445;-70
2023/04/16 04:42:30;;;;;;;;;;;;;;;;;;5048342;28;19912;-71
2023/04/16 04:44:57;;;;;;;;;;;;;;;;;;5035784;28;20018;-70
2023/04/16 04:47:23;;;;;;;;;;;;;;;;;;5047576;28;20044;-72
2023/04/16 04:49:49;;;;;;;;;;;;;;;;;;5053691;28;20307;-70
2023/04/16 04:52:17;;;;;;;;;;;;;;;;;;5050770;28;20620;-70
2023/04/16 04:54:42;;;;;;;;;;;;;;;;;;5036231;28;19911;-70
2023/04/16 04:57:10;;;;;;;;;;;;;;;;;;5035941;28;19912;-70
2023/04/16 04:59:36;;;;;;;;;;;;;;;;;;5050387;28;19912;-70
2023/04/16 05:02:03;;;;;;;;;;;;;;;;;;5053219;28;20064;-69
2023/04/16 05:04:31;;;;;;;;;;;;;;;;;;5051330;28;19916;-70
2023/04/16 05:06:58;;;;;;;;;;;;;;;;;;5037125;28;20396;-71
2023/04/16 05:09:25;;;;;;;;;;;;;;;;;;5032797;28;19916;-70
2023/04/16 05:11:51;;;;;;;;;;;;;;;;;;5052036;28;19970;-70
2023/04/16 05:14:18;;;;;;;;;;;;;;;;;;5034681;28;20007;-70
2023/04/16 05:16:45;;;;;;;;;;;;;;;;;;5034451;28;20887;-70
2023/04/16 05:19:12;;;;;;;;;;;;;;;;;;5049042;28;20713;-70
2023/04/16 05:21:38;;;;;;;;;;;;;;;;;;5055765;28;19912;-70
2023/04/16 05:24:04;;;;;;;;;;;;;;;;;;5051829;28;19955;-70
2023/04/16 05:26:30;;;;;;;;;;;;;;;;;;5046121;28;19931;-70
2023/04/16 05:28:56;;;;;;;;;;;;;;;;;;5052094;28;19912;-71
2023/04/16 05:31:23;;;;;;;;;;;;;;;;;;5033503;28;19908;-70
2023/04/16 05:33:49;;;;;;;;;;;;;;;;;;5051367;28;19982;-70
2023/04/16 05:36:16;;;;;;;;;;;;;;;;;;5048988;28;19942;-71
2023/04/16 05:38:42;;;;;;;;;;;;;;;;;;5036429;28;20415;-70
2023/04/16 05:41:09;;;;;;;;;;;;;;;;;;5032578;28;20002;-70
2023/04/16 05:43:35;;;;;;;;;;;;;;;;;;5034690;28;20397;-69
2023/04/16 05:46:02;;;;;;;;;;;;;;;;;;5034119;28;19959;-71
2023/04/16 05:48:29;;;;;;;;;;;;;;;;;;5046209;28;19923;-71
2023/04/16 05:50:57;;;;;;;;;;;;;;;;;;5058170;28;20175;-70
2023/04/16 05:53:24;;;;;;;;;;;;;;;;;;5051487;28;19912;-70
2023/04/16 05:55:51;;;;;;;;;;;;;;;;;;5056247;28;19967;-70
2023/04/16 05:58:17;;;;;;;;;;;;;;;;;;5032200;28;20075;-70
2023/04/16 06:00:44;;;;;;;;;;;;;;;;;;5054056;28;20377;-70
2023/04/16 06:03:10;;;;;;;;;;;;;;;;;;5046436;28;19912;-70
2023/04/16 06:05:37;;;;;;;;;;;;;;;;;;5035337;28;19992;-70
2023/04/16 06:08:04;;;;;;;;;;;;;;;;;;5051896;28;20033;-71
2023/04/16 06:10:30;;;;;;;;;;;;;;;;;;5047653;28;19916;-70
2023/04/16 06:12:56;;;;;;;;;;;;;;;;;;5052042;28;19924;-70
2023/04/16 06:15:23;;;;;;;;;;;;;;;;;;5033725;28;19919;-70
2023/04/16 06:17:49;;;;;;;;;;;;;;;;;;5046786;28;20009;-71
2023/04/16 06:20:17;;;;;;;;;;;;;;;;;;5033383;28;20054;-71
2023/04/16 06:22:43;;;;;;;;;;;;;;;;;;5053668;28;20383;-71
2023/04/16 06:25:10;;;;;;;;;;;;;;;;;;5029260;28;19924;-70
2023/04/16 06:27:37;;;;;;;;;;;;;;;;;;5031532;28;20425;-71
2023/04/16 06:30:04;;;;;;;;;;;;;;;;;;5033916;28;19938;-70
2023/04/16 06:32:31;;;;;;;;;;;;;;;;;;5049067;28;19986;-70
2023/04/16 06:34:57;;;;;;;;;;;;;;;;;;5038269;28;19955;-70
2023/04/16 06:37:23;;;;;;;;;;;;;;;;;;5050251;28;20014;-70
2023/04/16 06:39:51;;;;;;;;;;;;;;;;;;5053504;28;20301;-73
2023/04/16 06:42:18;;;;;;;;;;;;;;;;;;5049486;28;19919;-71
2023/04/16 06:44:45;;;;;;;;;;;;;;;;;;5035510;28;19912;-71
2023/04/16 06:47:13;;;;;;;;;;;;;;;;;;5047402;28;19923;-71
2023/04/16 06:49:40;;;;;;;;;;;;;;;;;;5031293;28;20217;-71
2023/04/16 06:52:07;;;;;;;;;;;;;;;;;;5032586;28;20561;-71
2023/04/16 06:54:34;;;;;;;;;;;;;;;;;;5052543;28;20394;-71
2023/04/16 06:57:01;;;;;;;;;;;;;;;;;;5036879;28;20773;-70
2023/04/16 06:59:29;;;;;;;;;;;;;;;;;;5048433;28;19923;-72
2023/04/16 07:01:55;;;;;;;;;;;;;;;;;;5033024;28;19975;-70
2023/04/16 07:04:23;;;;;;;;;;;;;;;;;;5030117;28;20392;-70
2023/04/16 07:06:50;;;;;;;;;;;;;;;;;;5034677;28;19974;-70
2023/04/16 07:09:17;;;;;;;;;;;;;;;;;;5048910;28;20356;-70
2023/04/16 07:11:45;;;;;;;;;;;;;;;;;;5051065;28;19911;-71
2023/04/16 07:14:12;;;;;;;;;;;;;;;;;;5028614;28;19920;-71
2023/04/16 07:16:39;;;;;;;;;;;;;;;;;;5031245;28;19916;-70
2023/04/16 07:19:06;;;;;;;;;;;;;;;;;;5035913;28;20352;-71
2023/04/16 07:21:34;;;;;;;;;;;;;;;;;;5033581;28;20397;-72
2023/04/16 07:24:01;;;;;;;;;;;;;;;;;;5050696;28;19917;-71
2023/04/16 07:26:28;;;;;;;;;;;;;;;;;;5029348;28;20971;-71
2023/04/16 07:28:56;;;;;;;;;;;;;;;;;;5052259;28;19942;-71
2023/04/16 07:31:22;;;;;;;;;;;;;;;;;;5043346;28;20902;-70
2023/04/16 07:33:49;;;;;;;;;;;;;;;;;;5035906;28;19915;-70
2023/04/16 07:36:16;;;;;;;;;;;;;;;;;;5046324;28;20150;-71
2023/04/16 07:38:43;;;;;;;;;;;;;;;;;;5045370;28;20467;-70
2023/04/16 07:41:11;;;;;;;;;;;;;;;;;;5028964;28;20457;-72
2023/04/16 07:43:38;;;;;;;;;;;;;;;;;;5052455;28;20355;-70
2023/04/16 07:46:05;;;;;;;;;;;;;;;;;;5053658;28;20231;-70
2023/04/16 07:48:32;;;;;;;;;;;;;;;;;;5047065;28;20303;-72
2023/04/16 07:51:00;;;;;;;;;;;;;;;;;;5033236;28;20273;-72
2023/04/16 07:53:27;;;;;;;;;;;;;;;;;;5049928;28;19912;-71
2023/04/16 07:55:54;;;;;;;;;;;;;;;;;;5051860;28;20022;-72
2023/04/16 07:58:21;;;;;;;;;;;;;;;;;;5049810;28;19942;-72
2023/04/16 08:00:48;;;;;;;;;;;;;;;;;;5034365;28;21121;-71
2023/04/16 08:03:16;;;;;;;;;;;;;;;;;;5034937;28;19919;-71
2023/04/16 08:05:43;;;;;;;;;;;;;;;;;;5042604;28;20257;-71
2023/04/16 08:08:11;;;;;;;;;;;;;;;;;;5053954;28;20448;-70
2023/04/16 08:10:38;;;;;;;;;;;;;;;;;;5055184;28;19978;-70
2023/04/16 08:13:05;;;;;;;;;;;;;;;;;;5056263;28;19919;-70
2023/04/16 08:15:32;;;;;;;;;;;;;;;;;;5032586;28;19918;-71
2023/04/16 08:17:59;;;;;;;;;;;;;;;;;;5056440;28;20426;-71
2023/04/16 08:20:25;;;;;;;;;;;;;;;;;;5039293;28;20143;-72
2023/04/16 08:22:52;;;;;;;;;;;;;;;;;;5062615;28;20178;-70
2023/04/16 08:25:20;;;;;;;;;;;;;;;;;;5036033;28;19920;-70
2023/04/16 08:27:47;;;;;;;;;;;;;;;;;;5044028;28;19912;-71
2023/04/16 08:30:15;;;;;;;;;;;;;;;;;;5040883;28;19985;-69
2023/04/16 08:32:42;;;;;;;;;;;;;;;;;;5056380;28;19911;-70
2023/04/16 08:35:08;;;;;;;;;;;;;;;;;;5057666;28;19966;-70
2023/04/16 08:37:35;;;;;;;;;;;;;;;;;;5058642;28;19916;-70
2023/04/16 08:40:02;;;;;;;;;;;;;;;;;;5042449;28;19916;-70
2023/04/16 08:42:29;;;;;;;;;;;;;;;;;;5040991;28;19927;-70
2023/04/16 08:44:56;;;;;;;;;;;;;;;;;;5058898;28;19911;-69
2023/04/16 08:47:23;;;;;;;;;;;;;;;;;;5051308;28;19919;-71
2023/04/16 08:49:50;;;;;;;;;;;;;;;;;;5060084;28;19951;-70
2023/04/16 08:52:17;;;;;;;;;;;;;;;;;;5060549;28;20261;-70
2023/04/16 08:54:44;;;;;;;;;;;;;;;;;;5062030;28;19918;-70
2023/04/16 08:57:11;;;;;;;;;;;;;;;;;;5057886;28;19962;-70
2023/04/16 08:59:39;;;;;;;;;;;;;;;;;;5059196;28;20337;-70
2023/04/16 09:02:06;;;;;;;;;;;;;;;;;;5055452;28;19912;-70
2023/04/16 09:04:34;;;;;;;;;;;;;;;;;;5059023;28;20009;-70
2023/04/16 09:07:01;;;;;;;;;;;;;;;;;;5041987;28;20055;-70
2023/04/16 09:09:29;;;;;;;;;;;;;;;;;;5040748;28;19933;-71
2023/04/16 09:11:56;;;;;;;;;;;;;;;;;;5060990;28;19912;-70
2023/04/16 09:14:23;;;;;;;;;;;;;;;;;;5056699;28;19916;-70
2023/04/16 09:16:50;;;;;;;;;;;;;;;;;;5055358;28;20141;-69
2023/04/16 09:19:16;;;;;;;;;;;;;;;;;;5057030;28;19924;-69
2023/04/16 09:21:43;;;;;;;;;;;;;;;;;;5060275;28;20388;-70
2023/04/16 09:24:10;;;;;;;;;;;;;;;;;;5053962;28;20331;-71
2023/04/16 09:26:37;;;;;;;;;;;;;;;;;;5053243;28;19920;-69
2023/04/16 09:29:03;;;;;;;;;;;;;;;;;;5056522;28;19916;-70
2023/04/16 09:31:30;;;;;;;;;;;;;;;;;;5053675;28;19919;-70
2023/04/16 09:33:57;;;;;;;;;;;;;;;;;;5041931;28;19922;-70
2023/04/16 09:36:25;;;;;;;;;;;;;;;;;;5058761;28;19912;-70
2023/04/16 09:38:52;;;;;;;;;;;;;;;;;;5044578;28;19916;-69
2023/04/16 09:41:20;;;;;;;;;;;;;;;;;;5054884;28;19912;-71
2023/04/16 09:43:47;;;;;;;;;;;;;;;;;;5058078;28;19911;-69
2023/04/16 09:46:15;;;;;;;;;;;;;;;;;;5053023;28;19916;-71
2023/04/16 09:48:42;;;;;;;;;;;;;;;;;;5059588;28;20330;-69
2023/04/16 09:51:10;;;;;;;;;;;;;;;;;;5056945;28;20002;-71
2023/04/16 09:53:36;;;;;;;;;;;;;;;;;;5057536;28;20236;-70
2023/04/16 09:56:02;;;;;;;;;;;;;;;;;;5053517;28;20186;-70
2023/04/16 09:58:28;;;;;;;;;;;;;;;;;;5055442;28;21204;-70
2023/04/16 10:00:55;;;;;;;;;;;;;;;;;;5039873;28;19911;-71
2023/04/16 10:03:21;;;;;;;;;;;;;;;;;;5054135;28;19916;-71
2023/04/16 10:05:47;;;;;;;;;;;;;;;;;;5058368;28;19920;-71
2023/04/16 10:08:13;;;;;;;;;;;;;;;;;;5036881;28;19920;-71
2023/04/16 10:10:40;;;;;;;;;;;;;;;;;;5057554;28;19912;-70
2023/04/16 10:13:07;;;;;;;;;;;;;;;;;;5039016;28;20383;-70
2023/04/16 10:15:34;;;;;;;;;;;;;;;;;;5058033;28;19991;-70
2023/04/16 10:18:01;;;;;;;;;;;;;;;;;;5037480;28;20440;-70
2023/04/16 10:20:28;;;;;;;;;;;;;;;;;;5054868;28;20146;-69
2023/04/16 10:22:55;;;;;;;;;;;;;;;;;;5053694;28;20095;-70
2023/04/16 10:25:22;;;;;;;;;;;;;;;;;;5051444;28;20419;-69
2023/04/16 10:27:49;;;;;;;;;;;;;;;;;;5056866;28;19962;-69
2023/04/16 10:30:17;;;;;;;;;;;;;;;;;;5039489;28;20258;-70
2023/04/16 10:32:44;;;;;;;;;;;;;;;;;;5039964;28;20262;-69
2023/04/16 10:35:11;;;;;;;;;;;;;;;;;;5054059;28;19915;-70
2023/04/16 10:37:39;;;;;;;;;;;;;;;;;;5054782;28;19927;-70
2023/04/16 10:40:06;;;;;;;;;;;;;;;;;;5037999;28;20416;-70
2023/04/16 10:42:32;;;;;;;;;;;;;;;;;;5051878;28;19939;-70
2023/04/16 10:45:00;;;;;;;;;;;;;;;;;;5038047;28;19923;-70
2023/04/16 10:47:27;;;;;;;;;;;;;;;;;;5053563;28;19915;-70
2023/04/16 10:49:54;;;;;;;;;;;;;;;;;;5057747;28;19915;-70
2023/04/16 10:52:23;;;;;;;;;;;;;;;;;;5055028;28;19912;-70
2023/04/16 10:54:50;;;;;;;;;;;;;;;;;;5037836;28;19912;-70
2023/04/16 10:57:18;;;;;;;;;;;;;;;;;;5053046;28;20010;-70
2023/04/16 10:59:45;;;;;;;;;;;;;;;;;;5057133;28;20175;-70
2023/04/16 11:02:13;;;;;;;;;;;;;;;;;;5050967;28;19920;-69
2023/04/16 11:04:40;;;;;;;;;;;;;;;;;;5055065;28;19939;-71
2023/04/16 11:07:06;;;;;;;;;;;;;;;;;;5054357;28;20010;-71
2023/04/16 11:09:32;;;;;;;;;;;;;;;;;;5053777;28;19926;-69
2023/04/16 11:12:00;;;;;;;;;;;;;;;;;;5053472;28;19912;-69
2023/04/16 11:14:27;;;;;;;;;;;;;;;;;;5034194;28;19912;-71
2023/04/16 11:16:53;;;;;;;;;;;;;;;;;;5055011;28;20361;-71
2023/04/16 11:19:20;;;;;;;;;;;;;;;;;;5053149;28;20621;-71
2023/04/16 11:21:48;;;;;;;;;;;;;;;;;;5037036;28;21174;-69
2023/04/16 11:24:15;;;;;;;;;;;;;;;;;;5052164;28;19911;-71
2023/04/16 11:26:42;;;;;;;;;;;;;;;;;;5052319;28;19930;-69
2023/04/16 11:29:09;;;;;;;;;;;;;;;;;;5048931;28;20056;-69
2023/04/16 11:31:35;;;;;;;;;;;;;;;;;;5053472;28;19916;-69
2023/04/16 11:34:02;;;;;;;;;;;;;;;;;;5056905;28;20338;-69
2023/04/16 11:36:28;;;;;;;;;;;;;;;;;;5054983;28;19952;-69
2023/04/16 11:38:55;;;;;;;;;;;;;;;;;;5037495;28;19999;-70
2023/04/16 11:41:23;;;;;;;;;;;;;;;;;;5053989;28;19923;-69
2023/04/16 11:43:50;;;;;;;;;;;;;;;;;;5035987;28;20436;-69
2023/04/16 11:46:17;;;;;;;;;;;;;;;;;;5056129;28;20257;-68
2023/04/16 11:48:45;;;;;;;;;;;;;;;;;;5040700;28;19920;-69
2023/04/16 11:51:13;;;;;;;;;;;;;;;;;;5052610;28;20075;-69
2023/04/16 11:53:40;;;;;;;;;;;;;;;;;;5035139;28;20571;-70
2023/04/16 11:56:07;;;;;;;;;;;;;;;;;;5050602;28;20422;-70
2023/04/16 11:58:33;;;;;;;;;;;;;;;;;;5040098;28;19912;-69
2023/04/16 12:01:01;;;;;;;;;;;;;;;;;;5037856;28;19923;-70
2023/04/16 12:03:28;;;;;;;;;;;;;;;;;;5035330;28;20303;-70
2023/04/16 12:05:55;;;;;;;;;;;;;;;;;;5052798;28;19916;-70
2023/04/16 12:08:21;;;;;;;;;;;;;;;;;;5053099;28;20177;-70
2023/04/16 12:10:48;;;;;;;;;;;;;;;;;;5034795;28;20303;-70
2023/04/16 12:13:15;;;;;;;;;;;;;;;;;;5033672;28;20301;-70
2023/04/16 12:15:42;;;;;;;;;;;;;;;;;;5053047;28;20121;-70
2023/04/16 12:18:10;;;;;;;;;;;;;;;;;;5049112;28;20525;-70
2023/04/16 12:20:39;;;;;;;;;;;;;;;;;;5054379;28;20219;-70
2023/04/16 12:23:05;;;;;;;;;;;;;;;;;;5039523;28;20215;-69
2023/04/16 12:25:30;;;;;;;;;;;;;;;;;;5034199;28;20419;-71
2023/04/16 12:27:57;;;;;;;;;;;;;;;;;;5463043;22;20937;-71
2023/04/16 12:30:23;;;;;;;;;;;;;;;;;;5032285;28;20062;-73
2023/04/16 12:32:49;;;;;;;;;;;;;;;;;;5030521;28;20254;-72
2023/04/16 12:35:15;;;;;;;;;;;;;;;;;;5032975;28;20289;-73
2023/04/16 12:37:41;;;;;;;;;;;;;;;;;;5036544;28;20255;-73
2023/04/16 12:40:08;;;;;;;;;;;;;;;;;;5018232;28;19976;-73
2023/04/16 12:42:34;;;;;;;;;;;;;;;;;;5027345;28;20404;-73
2023/04/16 12:45:00;;;;;;;;;;;;;;;;;;5031367;28;20281;-72
2023/04/16 12:47:26;;;;;;;;;;;;;;;;;;5018782;28;20274;-72
2023/04/16 12:49:52;;;;;;;;;;;;;;;;;;5025187;28;19977;-73
2023/04/16 12:52:18;;;;;;;;;;;;;;;;;;5020613;28;20029;-72
2023/04/16 12:54:44;;;;;;;;;;;;;;;;;;5023524;28;19947;-71
2023/04/16 12:57:10;;;;;;;;;;;;;;;;;;5003823;28;19921;-71
2023/04/16 12:59:36;;;;;;;;;;;;;;;;;;5008728;28;19959;-73
2023/04/16 13:02:02;;;;;;;;;;;;;;;;;;5021664;28;20035;-74
2023/04/16 13:04:28;;;;;;;;;;;;;;;;;;5030976;28;20260;-72
2023/04/16 13:06:54;;;;;;;;;;;;;;;;;;5005847;28;19917;-72
2023/04/16 13:09:20;;;;;;;;;;;;;;;;;;5017304;28;19960;-71
2023/04/16 13:11:46;;;;;;;;;;;;;;;;;;5006843;28;20338;-73
2023/04/16 13:14:12;;;;;;;;;;;;;;;;;;5022782;28;20002;-73
2023/04/16 13:16:38;;;;;;;;;;;;;;;;;;5024220;28;19919;-71
2023/04/16 13:19:04;;;;;;;;;;;;;;;;;;5028079;28;19923;-72
2023/04/16 13:21:30;;;;;;;;;;;;;;;;;;5025222;28;19924;-71
2023/04/16 13:23:56;;;;;;;;;;;;;;;;;;5005072;28;19921;-72
2023/04/16 13:26:22;;;;;;;;;;;;;;;;;;4996356;28;19916;-78
2023/04/16 13:28:48;;;;;;;;;;;;;;;;;;5006802;28;19924;-76
2023/04/16 13:31:18;;;;;;;;;;;;;;;;;;5005021;28;20448;-75
2023/04/16 13:33:44;;;;;;;;;;;;;;;;;;5026096;28;19922;-76
2023/04/16 13:36:10;;;;;;;;;;;;;;;;;;5020350;28;20050;-76
2023/04/16 13:38:37;;;;;;;;;;;;;;;;;;5025005;28;20027;-76
2023/04/16 13:41:03;;;;;;;;;;;;;;;;;;5019880;28;19924;-78
2023/04/16 13:43:29;;;;;;;;;;;;;;;;;;5001901;28;20383;-77
2023/04/16 13:45:55;;;;;;;;;;;;;;;;;;5000448;28;19921;-76
2023/04/16 13:48:21;;;;;;;;;;;;;;;;;;5020400;28;20380;-76
2023/04/16 13:50:47;;;;;;;;;;;;;;;;;;5025144;28;19923;-77
2023/04/16 13:53:13;;;;;;;;;;;;;;;;;;5003402;28;19919;-77
2023/04/16 13:55:39;;;;;;;;;;;;;;;;;;5026980;28;20268;-76
2023/04/16 13:58:06;;;;;;;;;;;;;;;;;;5021339;28;20035;-76
2023/04/16 14:00:32;;;;;;;;;;;;;;;;;;4997198;28;19960;-77
2023/04/16 14:02:57;;;;;;;;;;;;;;;;;;5021227;28;20327;-76
2023/04/16 14:05:23;;;;;;;;;;;;;;;;;;4999218;28;19924;-77
2023/04/16 14:07:49;;;;;;;;;;;;;;;;;;5026832;28;19980;-76
2023/04/16 14:10:15;;;;;;;;;;;;;;;;;;5017511;28;19955;-76
2023/04/16 14:12:41;;;;;;;;;;;;;;;;;;5023500;28;19959;-77
2023/04/16 14:15:13;;;;;;;;;;;;;;;;;;5020749;28;20353;-78
2023/04/16 14:17:39;;;;;;;;;;;;;;;;;;5001631;28;20027;-75
2023/04/16 14:20:05;;;;;;;;;;;;;;;;;;5025391;28;19925;-75
2023/04/16 14:22:31;;;;;;;;;;;;;;;;;;5020143;28;19935;-76
2023/04/16 14:24:57;;;;;;;;;;;;;;;;;;5023537;28;19938;-76
2023/04/16 14:27:23;;;;;;;;;;;;;;;;;;5021820;28;20015;-77
2023/04/16 14:29:49;;;;;;;;;;;;;;;;;;5022655;28;19928;-75
2023/04/16 14:32:15;;;;;;;;;;;;;;;;;;4998679;28;20401;-76
2023/04/16 14:34:41;;;;;;;;;;;;;;;;;;5020172;28;19913;-76
2023/04/16 14:37:07;;;;;;;;;;;;;;;;;;5024328;28;19919;-76
2023/04/16 14:39:35;;;;;;;;;;;;;;;;;;5020701;28;20352;-76
2023/04/16 14:42:01;;;;;;;;;;;;;;;;;;5027885;28;19920;-79
2023/04/16 14:44:27;;;;;;;;;;;;;;;;;;5017454;28;19924;-76
2023/04/16 14:46:54;;;;;;;;;;;;;;;;;;5023437;28;19917;-75
2023/04/16 14:49:20;;;;;;;;;;;;;;;;;;5023633;28;20456;-76
2023/04/16 14:51:46;;;;;;;;;;;;;;;;;;5021000;28;19919;-76
2023/04/16 14:54:12;;;;;;;;;;;;;;;;;;5018419;28;20489;-76
2023/04/16 14:56:37;;;;;;;;;;;;;;;;;;5026217;28;19912;-77
2023/04/16 14:59:03;;;;;;;;;;;;;;;;;;5025411;28;19917;-75
2023/04/16 15:01:30;;;;;;;;;;;;;;;;;;5005944;28;20583;-75
2023/04/16 15:03:58;;;;;;;;;;;;;;;;;;5034554;28;19912;-76
2023/04/16 15:06:24;;;;;;;;;;;;;;;;;;5044359;28;19936;-77
2023/04/16 15:08:49;;;;;;;;;;;;;;;;;;5044629;28;19913;-75
2023/04/16 15:11:15;;;;;;;;;;;;;;;;;;5046167;28;19919;-76
2023/04/16 15:13:41;;;;;;;;;;;;;;;;;;5028568;28;19913;-76
2023/04/16 15:16:07;;;;;;;;;;;;;;;;;;5036733;28;19927;-75
2023/04/16 15:18:33;;;;;;;;;;;;;;;;;;5023351;28;20350;-76
2023/04/16 15:20:59;;;;;;;;;;;;;;;;;;5025894;28;19913;-76
2023/04/16 15:23:25;;;;;;;;;;;;;;;;;;5018577;28;19944;-76
2023/04/16 15:25:51;;;;;;;;;;;;;;;;;;5020519;28;20011;-77
2023/04/16 15:28:17;;;;;;;;;;;;;;;;;;5017693;28;20386;-75
2023/04/16 15:30:43;;;;;;;;;;;;;;;;;;5020006;28;19917;-75
2023/04/16 15:33:09;;;;;;;;;;;;;;;;;;5017540;28;19912;-76
2023/04/16 15:35:37;;;;;;;;;;;;;;;;;;5022954;28;20724;-75
2023/04/16 15:38:03;;;;;;;;;;;;;;;;;;5022845;28;19943;-76
2023/04/16 15:40:29;;;;;;;;;;;;;;;;;;5000102;28;20270;-77
2023/04/16 15:42:55;;;;;;;;;;;;;;;;;;5019680;28;20286;-77
2023/04/16 15:45:21;;;;;;;;;;;;;;;;;;5017475;28;19919;-76
2023/04/16 15:47:50;;;;;;;;;;;;;;;;;;5015267;28;19912;-76
2023/04/16 15:50:16;;;;;;;;;;;;;;;;;;5018808;28;19913;-77
2023/04/16 15:52:41;;;;;;;;;;;;;;;;;;4999610;28;19919;-77
2023/04/16 15:55:07;;;;;;;;;;;;;;;;;;5002021;28;19913;-76
2023/04/16 15:57:33;;;;;;;;;;;;;;;;;;5023702;28;19994;-76
2023/04/16 15:59:59;;;;;;;;;;;;;;;;;;5003830;28;19970;-76
2023/04/16 16:02:25;;;;;;;;;;;;;;;;;;4995846;28;20342;-76
2023/04/16 16:04:51;;;;;;;;;;;;;;;;;;5018774;28;19912;-76
2023/04/16 16:07:18;;;;;;;;;;;;;;;;;;4999766;28;20366;-77
2023/04/16 16:09:46;;;;;;;;;;;;;;;;;;5019837;28;20414;-76
2023/04/16 16:12:12;;;;;;;;;;;;;;;;;;5020958;28;19919;-75
2023/04/16 16:14:38;;;;;;;;;;;;;;;;;;5002086;28;20373;-76
2023/04/16 16:17:04;;;;;;;;;;;;;;;;;;5004599;28;19913;-76
2023/04/16 16:19:30;;;;;;;;;;;;;;;;;;4998427;28;19913;-75
2023/04/16 16:21:56;;;;;;;;;;;;;;;;;;5022459;28;19994;-75
2023/04/16 16:24:22;;;;;;;;;;;;;;;;;;5020270;28;19952;-76
2023/04/16 16:26:48;;;;;;;;;;;;;;;;;;5025475;28;19916;-76
2023/04/16 16:29:14;;;;;;;;;;;;;;;;;;5018893;28;20795;-77
2023/04/16 16:31:40;;;;;;;;;;;;;;;;;;5006155;28;19921;-77
2023/04/16 16:34:06;;;;;;;;;;;;;;;;;;5008253;28;20360;-77
2023/04/16 16:36:35;;;;;;;;;;;;;;;;;;5023752;28;20429;-76
2023/04/16 16:39:02;;;;;;;;;;;;;;;;;;5025527;28;19919;-77
2023/04/16 16:41:28;;;;;;;;;;;;;;;;;;5020332;28;20037;-75